Time;durP1;ratioP1;P1;durP2;ratioP2;P2;SDS_P1;SDS_P2;PMS_P1;PMS_P2;Temp;Humidity;BMP_temperature;BMP_pressure;BME280_temperature;BME280_humidity;BME280_pressure;Samples;Min_cycle;Max_cycle;Signal;HPM_P1;HPM_P2
2022/01/09 00:00:09;;;;;;;;;6.00;1.00;;;;;8.20;71.51;99746.94;5073991;28;45916;-74
2022/01/09 00:02:35;;;;;;;;;7.00;2.00;;;;;8.18;71.04;99747.81;5056402;28;45399;-73
2022/01/09 00:05:00;;;;;;;;;0.00;0.00;;;;;8.15;71.21;99764.47;5074512;28;46140;-75
2022/01/09 00:07:26;;;;;;;;;1.33;0.00;;;;;8.14;71.13;99762.69;5077618;28;55264;-74
2022/01/09 00:09:51;;;;;;;;;3.67;1.00;;;;;8.12;71.45;99769.72;5075693;28;45515;-74
2022/01/09 00:12:16;;;;;;;;;0.00;0.00;;;;;8.10;71.53;99766.22;5073541;28;49500;-75
2022/01/09 00:14:42;;;;;;;;;1.00;1.00;;;;;8.04;71.33;99764.44;5055755;28;45554;-75
2022/01/09 00:17:07;;;;;;;;;5.33;1.00;;;;;8.02;71.30;99766.16;5073418;28;59640;-75
2022/01/09 00:19:32;;;;;;;;;7.00;1.00;;;;;7.97;71.19;99775.78;5072831;28;59485;-74
2022/01/09 00:21:58;;;;;;;;;2.00;1.33;;;;;8.03;71.22;99795.97;5072642;28;55748;-75
2022/01/09 00:24:26;;;;;;;;;4.67;0.33;;;;;8.01;71.19;99795.09;5055868;28;45457;-74
2022/01/09 00:26:51;;;;;;;;;2.00;2.00;;;;;7.96;71.16;99807.31;5073079;28;56180;-74
2022/01/09 00:29:19;;;;;;;;;2.00;1.00;;;;;7.95;71.45;99814.34;5054017;28;63501;-74
2022/01/09 00:31:45;;;;;;;;;3.67;2.00;;;;;7.95;71.65;99813.47;5066588;28;45410;-74
2022/01/09 00:34:10;;;;;;;;;5.00;2.00;;;;;7.94;71.78;99822.22;5073032;28;53669;-75
2022/01/09 00:36:35;;;;;;;;;6.25;2.25;;;;;7.94;71.79;99824.84;5069551;28;61344;-74
2022/01/09 00:39:01;;;;;;;;;8.00;1.00;;;;;7.95;71.92;99832.72;5073315;28;54535;-74
2022/01/09 00:41:26;;;;;;;;;9.00;1.00;;;;;7.95;71.85;99838.00;5073115;28;45557;-74
2022/01/09 00:43:54;;;;;;;;;4.33;2.67;;;;;7.96;71.90;99841.50;5072169;28;55511;-74
2022/01/09 00:46:19;;;;;;;;;5.00;1.00;;;;;7.96;71.70;99852.88;5072643;28;45610;-74
2022/01/09 00:48:45;;;;;;;;;7.25;3.00;;;;;8.00;71.96;99866.94;5071797;28;54029;-74
2022/01/09 00:51:13;;;;;;;;;7.25;2.50;;;;;7.97;72.01;99864.28;5072944;28;49722;-75
2022/01/09 00:53:38;;;;;;;;;6.33;1.33;;;;;7.95;71.83;99874.78;5073382;28;45803;-74
2022/01/09 00:56:04;;;;;;;;;3.00;2.00;;;;;7.94;71.57;99875.66;5072445;28;59300;-73
2022/01/09 00:58:29;;;;;;;;;5.00;1.33;;;;;7.93;71.24;99878.25;5073356;28;45872;-74
2022/01/09 01:00:59;;;;;;;;;5.50;1.00;;;;;7.91;71.14;99882.63;5072849;28;45309;-74
2022/01/09 01:03:24;;;;;;;;;6.00;1.00;;;;;7.90;71.18;99902.78;5072379;28;45580;-74
2022/01/09 01:05:50;;;;;;;;;5.25;0.00;;;;;7.87;70.70;99906.25;5073057;28;46329;-74
2022/01/09 01:08:15;;;;;;;;;3.75;1.00;;;;;7.87;69.64;99915.91;5072391;28;59391;-75
2022/01/09 01:10:41;;;;;;;;;2.00;1.00;;;;;7.85;70.65;99909.75;5073081;28;45550;-74
2022/01/09 01:13:06;;;;;;;;;10.00;0.00;;;;;7.88;70.44;99929.06;5065964;28;55909;-74
2022/01/09 01:15:31;;;;;;;;;1.00;0.00;;;;;7.87;70.14;99944.81;5072747;28;47450;-75
2022/01/09 01:17:57;;;;;;;;;6.25;1.00;;;;;7.90;69.45;99930.81;5072862;28;45409;-74
2022/01/09 01:20:23;;;;;;;;;5.50;1.00;;;;;7.86;69.81;99938.69;5054508;28;45957;-75
2022/01/09 01:22:50;;;;;;;;;5.67;1.00;;;;;7.87;70.15;99942.19;5072418;28;46341;-75
2022/01/09 01:25:35;;;;;;;;;1.50;0.75;;;;;7.93;69.94;99958.00;5072510;28;46528;-75
2022/01/09 01:28:01;;;;;;;;;5.67;0.33;;;;;7.95;70.15;99961.53;5044930;28;45703;-75
2022/01/09 01:30:26;;;;;;;;;9.67;1.00;;;;;7.99;70.17;99967.66;5036856;28;52515;-74
2022/01/09 01:32:52;;;;;;;;;2.00;0.25;;;;;8.02;69.33;99981.72;5063431;28;45632;-74
2022/01/09 01:35:17;;;;;;;;;1.00;1.00;;;;;8.08;69.61;99991.41;5071547;28;63561;-75
2022/01/09 01:37:42;;;;;;;;;1.00;0.00;;;;;8.13;69.80;100001.09;5071696;28;57580;-73
2022/01/09 01:40:14;;;;;;;;;0.33;0.00;;;;;8.16;69.83;100017.78;5072435;28;45404;-74
2022/01/09 01:42:40;;;;;;;;;3.67;0.00;;;;;8.13;71.27;100024.75;5040439;28;45622;-74
2022/01/09 01:45:08;;;;;;;;;5.00;0.00;;;;;8.08;72.30;100036.09;5075855;28;46359;-73
2022/01/09 01:47:36;;;;;;;;;0.00;0.00;;;;;8.02;75.40;100046.56;5074729;28;45570;-74
2022/01/09 01:50:06;;;;;;;;;8.00;0.00;;;;;7.88;75.03;100023.69;5050675;28;45442;-74
2022/01/09 01:52:37;;;;;;;;;3.25;0.75;;;;;7.78;75.90;100027.09;5068186;28;45412;-75
2022/01/09 01:55:04;;;;;;;;;2.50;1.00;;;;;7.71;76.32;100043.66;5069444;28;46397;-75
2022/01/09 01:57:30;;;;;;;;;3.00;0.33;;;;;7.68;76.93;100043.63;5069676;28;45459;-75
2022/01/09 01:59:55;;;;;;;;;1.75;1.00;;;;;7.65;77.12;100062.00;5057977;28;45454;-75
2022/01/09 02:02:22;;;;;;;;;5.25;1.00;;;;;7.59;77.20;100057.56;5076030;28;45656;-75
2022/01/09 02:04:47;;;;;;;;;4.25;0.75;;;;;7.51;77.40;100042.56;5070117;28;45798;-75
2022/01/09 02:07:13;;;;;;;;;6.00;1.00;;;;;7.49;77.59;100049.56;5075948;28;45457;-75
2022/01/09 02:09:38;;;;;;;;;0.50;0.00;;;;;7.47;77.52;100053.94;5075903;28;45758;-75
2022/01/09 02:12:04;;;;;;;;;2.00;1.00;;;;;7.44;78.75;100057.38;5069654;28;48221;-74
2022/01/09 02:14:30;;;;;;;;;1.00;1.00;;;;;7.43;77.95;100066.13;5075383;28;48047;-75
2022/01/09 02:16:55;;;;;;;;;0.00;0.00;;;;;7.30;78.50;100064.25;5075674;28;45801;-73
2022/01/09 02:19:21;;;;;;;;;5.00;1.25;;;;;7.28;78.58;100090.47;5075877;28;45367;-75
2022/01/09 02:21:46;;;;;;;;;5.50;0.00;;;;;7.23;78.40;100079.03;5075832;28;45750;-74
2022/01/09 02:24:12;;;;;;;;;0.75;0.50;;;;;7.21;79.26;100072.88;5056455;28;59270;-75
2022/01/09 02:26:38;;;;;;;;;0.50;0.00;;;;;7.26;78.38;100072.94;5074463;28;45495;-74
2022/01/09 02:29:05;;;;;;;;;1.00;0.00;;;;;7.19;78.85;100074.63;5073785;28;55792;-74
2022/01/09 02:31:30;;;;;;;;;0.75;0.75;;;;;7.22;78.16;100079.00;5075997;28;45477;-74
2022/01/09 02:33:56;;;;;;;;;0.00;0.00;;;;;7.17;77.86;100080.69;5074794;28;45483;-73
2022/01/09 02:36:21;;;;;;;;;2.00;0.50;;;;;7.12;77.36;100088.50;5074219;28;55470;-73
2022/01/09 02:38:48;;;;;;;;;2.25;0.00;;;;;7.17;77.58;100106.94;5075212;28;45498;-75
2022/01/09 02:41:14;;;;;;;;;0.00;0.00;;;;;7.22;77.16;100108.78;5075669;28;45428;-74
2022/01/09 02:43:39;;;;;;;;;2.00;0.00;;;;;7.26;77.60;100112.31;5074054;28;59426;-74
2022/01/09 02:48:38;;;;;;;;;0.00;0.00;;;;;7.21;78.57;100100.88;5066193;28;45557;-74
2022/01/09 02:51:09;;;;;;;;;0.75;0.00;;;;;7.11;78.73;100097.25;5074425;28;45980;-75
2022/01/09 02:53:36;;;;;;;;;0.00;0.00;;;;;7.09;78.46;100110.38;5074077;28;46448;-74
2022/01/09 02:56:03;;;;;;;;;2.00;0.00;;;;;7.06;78.09;100123.44;5075003;28;45487;-74
2022/01/09 02:58:28;;;;;;;;;1.00;0.00;;;;;7.05;78.39;100116.44;5074371;28;45477;-73
2022/01/09 03:00:53;;;;;;;;;0.00;0.00;;;;;7.14;78.44;100133.16;5074870;28;45539;-74
2022/01/09 03:03:19;;;;;;;;;0.00;0.00;;;;;7.15;77.94;100127.06;5074419;28;53421;-75
2022/01/09 03:05:44;;;;;;;;;2.50;0.00;;;;;7.13;78.71;100134.88;5074404;28;61047;-74
2022/01/09 03:08:09;;;;;;;;;0.00;0.00;;;;;7.15;78.24;100127.94;5075360;28;45498;-74
2022/01/09 03:10:35;;;;;;;;;1.00;0.50;;;;;7.17;77.72;100128.81;5074924;28;45418;-73
2022/01/09 03:13:00;;;;;;;;;2.75;0.00;;;;;7.20;77.58;100126.25;5073934;28;58493;-74
2022/01/09 03:15:26;;;;;;;;;1.00;0.50;;;;;7.18;77.78;100121.84;5074540;28;45519;-74
2022/01/09 03:17:52;;;;;;;;;0.50;0.00;;;;;7.24;77.45;100138.53;5074632;28;53953;-74
2022/01/09 03:20:22;;;;;;;;;1.25;0.00;;;;;7.29;76.97;100141.22;5074522;28;45429;-73
2022/01/09 03:22:48;;;;;;;;;2.00;0.75;;;;;7.32;76.93;100136.91;5052442;28;47557;-74
2022/01/09 03:25:13;;;;;;;;;5.50;0.00;;;;;7.40;76.82;100138.75;5074678;28;45505;-74
2022/01/09 03:27:39;;;;;;;;;2.25;0.00;;;;;7.42;77.27;100131.78;5073679;28;53479;-74
2022/01/09 03:30:07;;;;;;;;;3.50;0.25;;;;;7.51;76.72;100152.88;5074305;28;45502;-75
2022/01/09 03:32:33;;;;;;;;;4.00;0.00;;;;;7.48;76.39;100163.38;5073743;28;46254;-74
2022/01/09 03:34:58;;;;;;;;;7.00;0.25;;;;;7.50;76.99;100194.03;5073975;28;60651;-75
2022/01/09 03:37:23;;;;;;;;;1.00;0.50;;;;;7.41;78.01;100185.19;5055693;28;54918;-74
2022/01/09 03:39:49;;;;;;;;;0.00;0.00;;;;;7.30;78.47;100203.41;5074796;28;45400;-74
2022/01/09 03:42:14;;;;;;;;;7.50;1.00;;;;;7.13;79.85;100197.91;5073843;28;46687;-73
2022/01/09 03:44:39;;;;;;;;;2.75;0.25;;;;;7.01;81.60;100198.59;5074468;28;45521;-74
2022/01/09 03:47:05;;;;;;;;;2.25;0.00;;;;;6.92;82.79;100210.69;5072591;28;54795;-74
2022/01/09 03:49:30;;;;;;;;;1.00;0.00;;;;;6.87;82.42;100201.88;5074150;28;48211;-73
2022/01/09 03:51:57;;;;;;;;;4.75;0.00;;;;;6.83;83.67;100206.22;5073172;28;62680;-73
2022/01/09 03:54:23;;;;;;;;;0.50;0.50;;;;;6.83;82.64;100200.97;5074173;28;47245;-73
2022/01/09 03:56:49;;;;;;;;;0.00;0.00;;;;;6.74;83.37;100185.94;5074175;28;45429;-75
2022/01/09 03:59:15;;;;;;;;;2.00;1.00;;;;;6.66;83.78;100176.16;5074147;28;45569;-74
2022/01/09 04:01:40;;;;;;;;;2.50;0.00;;;;;6.56;84.34;100172.53;5069030;28;46763;-74
2022/01/09 04:04:06;;;;;;;;;3.75;0.00;;;;;6.55;84.63;100171.66;5073730;28;45451;-74
2022/01/09 04:06:31;;;;;;;;;5.50;0.00;;;;;6.51;84.00;100172.47;5073557;28;57238;-73
2022/01/09 04:08:58;;;;;;;;;2.00;0.50;;;;;6.51;84.62;100176.81;5073959;28;45557;-73
2022/01/09 04:11:28;;;;;;;;;2.00;0.50;;;;;6.50;83.86;100169.81;5073579;28;46494;-75
2022/01/09 04:13:54;;;;;;;;;0.00;0.00;;;;;6.49;83.67;100158.41;5040052;28;45834;-74
2022/01/09 04:16:19;;;;;;;;;0.00;0.00;;;;;6.49;83.88;100161.03;5074077;28;45473;-73
2022/01/09 04:18:45;;;;;;;;;2.75;1.00;;;;;6.50;84.11;100164.56;5073632;28;45536;-73
2022/01/09 04:21:10;;;;;;;;;3.25;0.00;;;;;6.52;83.64;100178.59;5054687;28;62085;-75
2022/01/09 04:23:35;;;;;;;;;3.25;1.00;;;;;6.54;83.99;100198.72;5071557;28;60487;-73
2022/01/09 04:26:01;;;;;;;;;2.00;0.00;;;;;6.53;83.62;100182.97;5073147;28;56160;-73
2022/01/09 04:28:26;;;;;;;;;3.50;0.00;;;;;6.56;83.98;100198.75;5072745;28;52552;-74
2022/01/09 04:30:52;;;;;;;;;3.25;0.00;;;;;6.59;84.03;100193.56;5072800;28;58685;-75
2022/01/09 04:33:17;;;;;;;;;0.00;0.00;;;;;6.62;83.98;100183.13;5073311;28;45514;-74
2022/01/09 04:35:45;;;;;;;;;8.50;1.00;;;;;6.66;83.86;100184.03;5067987;28;45872;-73
2022/01/09 04:38:11;;;;;;;;;0.00;0.00;;;;;6.65;83.17;100191.03;5055606;28;45409;-74
2022/01/09 04:40:36;;;;;;;;;5.00;0.00;;;;;6.63;83.26;100190.13;5073348;28;45728;-73
2022/01/09 04:43:04;;;;;;;;;0.00;0.00;;;;;6.66;83.39;100186.66;5072511;28;52687;-74
2022/01/09 04:45:30;;;;;;;;;5.00;0.00;;;;;6.66;83.60;100210.28;5055754;28;45570;-73
2022/01/09 04:47:59;;;;;;;;;1.00;0.00;;;;;6.73;82.83;100194.69;5068899;28;45427;-74
2022/01/09 04:50:27;;;;;;;;;1.00;1.00;;;;;6.69;82.98;100190.22;5073392;28;45759;-75
2022/01/09 04:52:59;;;;;;;;;4.00;0.00;;;;;6.67;82.92;100191.06;5072105;28;45423;-74
2022/01/09 04:55:25;;;;;;;;;2.75;1.00;;;;;6.56;83.14;100186.53;5073574;28;45754;-74
2022/01/09 04:57:50;;;;;;;;;2.00;0.00;;;;;6.61;83.90;100193.59;5072526;28;45489;-74
2022/01/09 05:00:16;;;;;;;;;1.75;0.00;;;;;6.64;83.17;100193.63;5072616;28;64744;-74
2022/01/09 05:02:41;;;;;;;;;3.00;1.00;;;;;6.61;83.63;100180.50;5073130;28;45723;-75
2022/01/09 05:05:09;;;;;;;;;1.00;1.00;;;;;6.62;83.39;100198.88;5073286;28;46087;-74
2022/01/09 05:07:34;;;;;;;;;2.00;0.25;;;;;6.58;83.12;100183.94;5073269;28;45577;-74
2022/01/09 05:09:59;;;;;;;;;1.00;0.00;;;;;6.54;82.90;100192.59;5071876;28;64384;-75
2022/01/09 05:12:25;;;;;;;;;0.00;0.00;;;;;6.50;83.19;100196.94;5071403;28;59724;-74
2022/01/09 05:14:50;;;;;;;;;0.00;0.00;;;;;6.47;82.96;100182.88;5073259;28;45900;-74
2022/01/09 05:17:16;;;;;;;;;0.00;0.00;;;;;6.53;83.05;100180.34;5072045;28;46617;-74
2022/01/09 05:19:41;;;;;;;;;0.00;0.00;;;;;6.55;83.35;100192.66;5067885;28;58598;-73
2022/01/09 05:22:08;;;;;;;;;0.00;0.00;;;;;6.58;83.49;100176.06;5072033;28;45471;-74
2022/01/09 05:24:34;;;;;;;;;0.50;0.00;;;;;6.66;83.36;100173.53;5072255;28;45564;-75
2022/01/09 05:27:00;;;;;;;;;2.25;0.00;;;;;6.68;83.12;100174.47;5072639;28;45622;-73
2022/01/09 05:29:25;;;;;;;;;1.00;0.00;;;;;6.71;83.05;100177.13;5071189;28;64266;-74
2022/01/09 05:31:50;;;;;;;;;0.25;0.00;;;;;6.75;82.95;100174.59;5072275;28;52278;-73
2022/01/09 05:34:16;;;;;;;;;2.00;0.00;;;;;6.74;83.05;100175.44;5073119;28;45940;-74
2022/01/09 05:36:42;;;;;;;;;2.00;1.00;;;;;6.82;82.99;100176.47;5070084;28;45588;-74
2022/01/09 05:39:07;;;;;;;;;3.25;0.00;;;;;6.85;82.83;100175.63;5072405;28;45533;-73
2022/01/09 05:41:32;;;;;;;;;1.75;0.00;;;;;6.89;82.51;100173.94;5071937;28;59838;-73
2022/01/09 05:43:58;;;;;;;;;3.00;0.67;;;;;6.91;82.58;100175.69;5071423;28;55116;-73
2022/01/09 05:46:23;;;;;;;;;0.50;0.00;;;;;6.93;82.57;100192.38;5072823;28;45900;-73
2022/01/09 05:48:48;;;;;;;;;0.00;0.00;;;;;6.96;82.24;100213.41;5072065;28;51946;-73
2022/01/09 05:51:14;;;;;;;;;0.50;0.00;;;;;6.98;82.37;100221.31;5071711;28;53001;-73
2022/01/09 05:53:39;;;;;;;;;2.25;1.00;;;;;7.05;82.50;100231.91;5072790;28;45426;-74
2022/01/09 05:56:05;;;;;;;;;1.75;0.00;;;;;7.13;82.52;100233.78;5072157;28;51707;-73
2022/01/09 05:58:31;;;;;;;;;0.00;0.00;;;;;7.20;82.43;100225.16;5054204;28;45910;-73
2022/01/09 06:00:56;;;;;;;;;3.50;1.00;;;;;7.28;82.55;100215.63;5053223;28;45919;-73
2022/01/09 06:03:22;;;;;;;;;0.25;0.00;;;;;7.37;82.60;100221.00;5069402;28;45532;-73
2022/01/09 06:05:47;;;;;;;;;3.33;0.00;;;;;7.42;82.75;100208.81;5067025;28;56167;-73
2022/01/09 06:08:12;;;;;;;;;6.00;0.33;;;;;7.50;82.33;100201.03;5071220;28;60750;-74
2022/01/09 06:10:38;;;;;;;;;3.00;2.00;;;;;7.53;82.06;100198.47;5072371;28;45433;-74
2022/01/09 06:13:03;;;;;;;;;4.50;0.00;;;;;7.52;81.91;100201.97;5072396;28;45962;-73
2022/01/09 06:15:28;;;;;;;;;6.75;0.00;;;;;7.48;81.91;100201.03;5071993;28;47909;-73
2022/01/09 06:17:54;;;;;;;;;5.75;1.00;;;;;7.54;81.89;100214.25;5071095;28;60673;-74
2022/01/09 06:20:19;;;;;;;;;0.00;0.00;;;;;7.58;81.35;100210.78;5071619;28;52049;-73
2022/01/09 06:22:45;;;;;;;;;1.00;1.00;;;;;7.60;81.37;100226.56;5064857;28;55637;-73
2022/01/09 06:25:11;;;;;;;;;1.67;0.67;;;;;7.58;81.14;100215.16;5072413;28;45488;-74
2022/01/09 06:27:36;;;;;;;;;2.00;0.00;;;;;7.63;81.18;100221.38;5070843;28;46312;-73
2022/01/09 06:30:03;;;;;;;;;3.67;1.00;;;;;7.61;81.10;100218.69;5074482;28;45551;-73
2022/01/09 06:32:29;;;;;;;;;1.33;0.67;;;;;7.56;80.79;100215.16;5068749;28;45482;-74
2022/01/09 06:34:54;;;;;;;;;0.00;0.00;;;;;7.55;80.52;100229.13;5075712;28;45518;-73
2022/01/09 06:37:19;;;;;;;;;1.33;0.33;;;;;7.51;79.93;100216.84;5074847;28;47488;-73
2022/01/09 06:39:45;;;;;;;;;6.00;0.50;;;;;7.48;80.30;100226.41;5075087;28;45474;-74
2022/01/09 06:42:10;;;;;;;;;2.00;0.50;;;;;7.54;80.54;100234.38;5075459;28;45801;-73
2022/01/09 06:44:35;;;;;;;;;4.50;1.00;;;;;7.52;80.34;100234.38;5074570;28;54752;-73
2022/01/09 06:47:01;;;;;;;;;5.33;0.00;;;;;7.56;79.88;100241.44;5073547;28;61370;-74
2022/01/09 06:49:26;;;;;;;;;3.25;0.00;;;;;7.56;79.95;100236.19;5056412;28;45575;-73
2022/01/09 06:51:52;;;;;;;;;0.00;0.00;;;;;7.59;79.67;100241.44;5075096;28;45477;-74
2022/01/09 06:54:17;;;;;;;;;2.67;0.00;;;;;7.55;79.51;100230.88;5075535;28;45513;-73
2022/01/09 06:56:43;;;;;;;;;0.00;0.00;;;;;7.56;79.91;100235.25;5075121;28;46233;-73
2022/01/09 06:59:08;;;;;;;;;0.00;0.00;;;;;7.52;79.80;100236.09;5074138;28;62030;-73
2022/01/09 07:01:34;;;;;;;;;0.00;0.00;;;;;7.44;80.84;100230.72;5074757;28;52804;-74
2022/01/09 07:03:59;;;;;;;;;0.00;0.00;;;;;7.43;82.41;100238.59;5064470;28;45794;-73
2022/01/09 07:06:24;;;;;;;;;0.00;0.00;;;;;7.39;82.59;100228.91;5074029;28;60927;-73
2022/01/09 07:08:50;;;;;;;;;1.00;0.00;;;;;7.33;82.32;100225.34;5074033;28;57557;-73
2022/01/09 07:11:15;;;;;;;;;1.00;0.00;;;;;7.31;81.98;100234.06;5074373;28;53735;-75
2022/01/09 07:13:41;;;;;;;;;1.00;0.00;;;;;7.22;80.56;100208.53;5073228;28;47540;-75
2022/01/09 07:16:07;;;;;;;;;1.00;0.00;;;;;7.20;80.43;100214.66;5074007;28;62469;-75
2022/01/09 07:18:32;;;;;;;;;0.00;0.00;;;;;7.18;80.30;100238.22;5072678;28;59500;-76
2022/01/09 07:20:57;;;;;;;;;0.00;0.00;;;;;7.14;80.53;100235.53;5074712;28;45509;-77
2022/01/09 07:23:23;;;;;;;;;0.00;0.00;;;;;7.11;82.72;100246.88;5070818;28;51121;-75
2022/01/09 07:25:48;;;;;;;;;0.00;0.00;;;;;7.04;84.24;100237.16;5067155;28;45968;-76
2022/01/09 07:28:14;;;;;;;;;1.00;0.00;;;;;7.03;85.03;100243.25;5065997;28;59561;-75
2022/01/09 07:30:39;;;;;;;;;0.00;0.00;;;;;6.93;88.37;100238.72;5072411;28;53837;-75
2022/01/09 07:33:05;;;;;;;;;1.00;0.00;;;;;6.95;88.50;100243.13;5073727;28;45580;-75
2022/01/09 07:35:30;;;;;;;;;0.00;0.00;;;;;6.89;89.10;100239.53;5073016;28;45595;-74
2022/01/09 07:37:56;;;;;;;;;0.00;0.00;;;;;6.86;89.67;100247.34;5043242;28;45609;-75
2022/01/09 07:40:21;;;;;;;;;0.25;0.25;;;;;6.82;89.81;100236.81;5048357;28;45988;-75
2022/01/09 07:42:47;;;;;;;;;1.00;0.00;;;;;6.81;87.09;100224.53;5058432;28;45570;-76
2022/01/09 07:45:14;;;;;;;;;1.50;0.00;;;;;6.88;87.42;100233.41;5062695;28;47730;-77
2022/01/09 07:47:39;;;;;;;;;5.00;1.00;;;;;6.89;85.77;100253.53;5067851;28;45715;-76
2022/01/09 07:50:05;;;;;;;;;0.00;0.00;;;;;6.83;85.71;100264.81;5070369;28;45760;-76
2022/01/09 07:52:34;;;;;;;;;2.00;0.00;;;;;6.82;85.36;100260.44;5038314;28;45685;-75
2022/01/09 07:54:59;;;;;;;;;1.50;0.00;;;;;6.82;85.89;100260.44;5053997;28;47160;-76
2022/01/09 07:57:25;;;;;;;;;1.00;0.00;;;;;6.82;86.03;100249.94;5073303;28;45594;-75
2022/01/09 07:59:50;;;;;;;;;2.75;0.00;;;;;6.81;85.55;100253.38;5073443;28;45630;-74
2022/01/09 08:02:16;;;;;;;;;0.25;0.00;;;;;6.80;85.60;100228.00;5073032;28;47445;-75
2022/01/09 08:04:41;;;;;;;;;1.00;0.00;;;;;6.75;85.53;100237.53;5054507;28;56322;-76
2022/01/09 08:07:06;;;;;;;;;0.50;0.00;;;;;6.65;85.92;100217.25;5069908;28;45410;-75
2022/01/09 08:09:32;;;;;;;;;1.00;0.00;;;;;6.72;86.39;100234.00;5054681;28;47040;-75
2022/01/09 08:11:57;;;;;;;;;0.00;0.00;;;;;6.72;85.79;100247.13;5072989;28;46024;-78
2022/01/09 08:14:23;;;;;;;;;3.00;0.00;;;;;6.69;86.00;100240.06;5072811;28;45380;-76
2022/01/09 08:16:48;;;;;;;;;1.50;1.50;;;;;6.68;86.02;100238.31;5072892;28;45408;-75
2022/01/09 08:19:13;;;;;;;;;4.00;1.00;;;;;6.68;86.28;100245.31;5072563;28;54606;-74
2022/01/09 08:21:39;;;;;;;;;1.00;0.00;;;;;6.65;86.30;100240.88;5072180;28;53438;-77
2022/01/09 08:24:04;;;;;;;;;0.00;0.00;;;;;6.61;86.07;100233.81;5053035;28;47456;-77
2022/01/09 08:26:30;;;;;;;;;1.00;0.00;;;;;6.68;86.11;100240.06;5069632;27;49094;-76
2022/01/09 08:28:55;;;;;;;;;1.00;0.00;;;;;6.70;85.86;100244.47;5067303;28;45593;-75
2022/01/09 08:31:21;;;;;;;;;0.00;0.00;;;;;6.73;86.54;100244.53;5071606;28;45443;-74
2022/01/09 08:33:46;;;;;;;;;0.00;0.00;;;;;6.76;86.13;100225.31;5071795;28;46601;-76
2022/01/09 08:36:12;;;;;;;;;4.50;0.00;;;;;6.77;86.51;100235.84;5070493;28;45743;-76
2022/01/09 08:38:37;;;;;;;;;0.00;0.00;;;;;6.73;86.08;100233.16;5072355;28;46096;-75
2022/01/09 08:41:02;;;;;;;;;0.75;0.75;;;;;6.74;86.15;100233.16;5072228;28;45553;-75
2022/01/09 08:43:28;;;;;;;;;0.50;0.00;;;;;6.79;85.80;100241.13;5070735;28;57349;-75
2022/01/09 08:45:54;;;;;;;;;0.00;0.00;;;;;6.77;85.48;100235.84;5070772;28;45530;-77
2022/01/09 08:48:19;;;;;;;;;1.00;0.00;;;;;6.80;85.64;100241.13;5070829;28;55510;-76
2022/01/09 08:50:45;;;;;;;;;0.00;0.00;;;;;6.83;85.88;100248.19;5053665;28;45554;-77
2022/01/09 08:53:10;;;;;;;;;0.00;0.00;;;;;6.88;86.00;100237.78;5050216;28;47516;-77
2022/01/09 08:55:35;;;;;;;;;5.50;0.00;;;;;6.88;85.44;100237.78;5062524;28;60507;-77
2022/01/09 08:58:26;;;;;;;;;0.75;0.00;;;;;6.95;85.63;100255.38;5052951;28;49934;-80
2022/01/09 09:00:54;;;;;;;;;0.50;0.00;;;;;6.97;85.28;100243.16;5032515;28;45600;-78
2022/01/09 09:03:20;;;;;;;;;1.50;0.00;;;;;7.04;85.70;100266.03;5068340;28;60421;-75
2022/01/09 09:05:45;;;;;;;;;0.00;0.00;;;;;7.06;85.56;100264.31;5069959;28;56200;-78
2022/01/09 09:08:11;;;;;;;;;0.00;0.00;;;;;7.12;86.23;100269.66;5065292;28;45791;-75
2022/01/09 09:10:40;;;;;;;;;0.33;0.00;;;;;7.20;86.19;100273.28;5070926;28;45642;-76
2022/01/09 09:13:06;;;;;;;;;0.00;0.00;;;;;7.27;86.06;100274.25;5033482;28;53979;-75
2022/01/09 09:15:31;;;;;;;;;0.00;0.00;;;;;7.26;86.49;100277.75;5052736;28;45799;-75
2022/01/09 09:17:57;;;;;;;;;0.33;0.00;;;;;7.35;86.71;100283.16;5070931;28;52395;-76
2022/01/09 09:20:22;;;;;;;;;0.00;0.00;;;;;7.37;nan;100293.66;5177220;22;45791;-78
2022/01/09 09:22:48;;;;;;;;;0.00;0.00;;;;;7.35;85.82;100296.28;5070370;27;45605;-77
2022/01/09 09:25:13;;;;;;;;;2.00;0.33;;;;;7.28;85.97;100291.78;5072054;27;46163;-76
2022/01/09 09:27:41;;;;;;;;;0.33;0.33;;;;;7.22;86.30;100296.94;5071175;28;45607;-76
2022/01/09 09:30:10;;;;;;;;;0.67;0.00;;;;;7.28;86.87;100300.53;5069639;28;45624;-76
2022/01/09 09:32:36;;;;;;;;;2.67;0.33;;;;;7.33;87.04;100296.22;5069526;28;46559;-75
2022/01/09 09:35:03;;;;;;;;;2.00;2.00;;;;;7.42;87.09;100302.50;5070652;27;45582;-77
2022/01/09 09:37:46;;;;;;;;;8.50;3.00;;;;;7.47;87.38;100308.72;5072015;27;45624;-75
2022/01/09 09:40:12;;;;;;;;;6.75;3.00;;;;;7.45;88.53;100294.66;5071395;28;45600;-75
2022/01/09 09:42:37;;;;;;;;;12.50;10.50;;;;;7.54;88.99;100290.41;5069775;28;47540;-74
2022/01/09 09:45:05;;;;;;;;;11.25;6.25;;;;;7.54;89.05;100295.69;5073116;28;57411;-75
2022/01/09 09:47:30;;;;;;;;;10.25;6.25;;;;;7.61;89.23;100294.00;5071069;28;45568;-75
2022/01/09 09:49:56;;;;;;;;;6.00;4.00;;;;;7.61;89.58;100302.78;5035925;28;45602;-75
2022/01/09 09:52:21;;;;;;;;;6.00;6.00;;;;;7.70;89.09;100322.19;5071433;27;45632;-74
2022/01/09 09:54:48;;;;;;;;;2.75;2.75;;;;;7.65;88.98;100310.72;5071760;28;45537;-75
2022/01/09 09:57:13;;;;;;;;;6.75;4.50;;;;;7.71;88.97;100318.69;5071695;27;45944;-78
2022/01/09 09:59:39;;;;;;;;;2.75;2.75;;;;;7.72;89.23;100323.06;5071350;28;45448;-75
2022/01/09 10:02:11;;;;;;;;;1.00;1.00;;;;;7.74;89.06;100332.75;5069455;28;46409;-75
2022/01/09 10:04:37;;;;;;;;;2.00;2.00;;;;;7.74;88.91;100317.00;5071002;28;45486;-75
2022/01/09 10:07:02;;;;;;;;;2.00;1.00;;;;;7.76;87.47;100324.88;5072020;28;45518;-76
2022/01/09 10:09:28;;;;;;;;;1.00;1.00;;;;;7.75;87.36;100326.63;5071216;27;45481;-76
2022/01/09 10:12:01;;;;;;;;;7.50;2.00;;;;;7.74;87.42;100314.34;5047477;27;48331;-78
2022/01/09 10:14:31;;;;;;;;;2.00;2.00;;;;;7.73;87.01;100299.47;5074572;27;45468;-76
2022/01/09 10:17:16;;;;;;;;;5.00;3.00;;;;;7.82;86.77;100303.94;5067647;27;45647;-75
2022/01/09 10:19:52;;;;;;;;;16.00;12.50;;;;;7.81;86.69;100318.84;5072908;27;45514;-76
2022/01/09 10:22:44;;;;;;;;;11.75;10.00;;;;;7.89;86.78;100318.94;5069055;27;46718;-75
2022/01/09 10:25:21;;;;;;;;;10.25;7.25;;;;;7.93;86.63;100312.84;5065645;27;45541;-76
2022/01/09 10:27:49;;;;;;;;;6.75;6.75;;;;;7.94;86.37;100309.38;5073772;27;45634;-74
2022/01/09 10:30:15;;;;;;;;;10.00;5.00;;;;;8.04;86.40;100313.00;5069668;27;45607;-78
2022/01/09 10:32:41;;;;;;;;;2.75;2.00;;;;;8.11;86.27;100334.13;5073368;27;46702;-75
2022/01/09 10:35:17;;;;;;;;;6.50;5.25;;;;;8.15;86.27;100332.44;5073697;27;60839;-76
2022/01/09 10:37:49;;;;;;;;;6.50;5.50;;;;;8.32;86.45;100330.03;5063367;27;45788;-76
2022/01/09 10:40:29;;;;;;;;;2.75;2.75;;;;;8.34;85.61;100310.75;5075075;27;45970;-76
2022/01/09 10:43:16;;;;;;;;;5.00;2.00;;;;;8.34;85.70;100333.53;5072841;28;48128;-76
2022/01/09 10:45:49;;;;;;;;;7.25;5.00;;;;;8.27;85.44;100343.09;5072266;27;45525;-77
2022/01/09 10:48:20;;;;;;;;;5.00;2.00;;;;;8.21;85.29;100342.16;5070651;27;45827;-76
2022/01/09 10:50:52;;;;;;;;;5.00;3.00;;;;;8.19;85.61;100346.50;5069046;27;45485;-76
2022/01/09 10:53:20;;;;;;;;;1.00;1.00;;;;;8.15;84.99;100353.47;5067446;28;46197;-77
2022/01/09 10:56:21;;;;;;;;;6.67;4.33;;;;;8.01;85.09;100334.00;5068628;28;45739;-76
2022/01/09 10:58:48;;;;;;;;;5.00;2.00;;;;;8.10;84.48;100348.16;5064019;28;45557;-76
2022/01/09 11:01:40;;;;;;;;;3.00;3.00;;;;;8.12;84.34;100361.31;5070576;27;45551;-76
2022/01/09 11:04:08;;;;;;;;;4.00;3.00;;;;;7.99;84.32;100340.97;5070831;28;46232;-75
2022/01/09 11:06:38;;;;;;;;;2.75;2.75;;;;;8.11;84.14;100346.41;5073349;28;45604;-76
2022/01/09 11:09:04;;;;;;;;;2.75;2.75;;;;;8.04;84.73;100349.78;5074409;28;45547;-75
2022/01/09 11:11:41;;;;;;;;;5.25;2.00;;;;;8.10;85.43;100368.31;5073106;28;45564;-76
2022/01/09 11:14:10;;;;;;;;;6.25;5.00;;;;;8.06;85.07;100358.59;5073501;27;47167;-75
2022/01/09 11:16:43;;;;;;;;;5.50;5.50;;;;;8.12;85.12;100370.09;5072818;27;45466;-75
2022/01/09 11:19:12;;;;;;;;;5.25;5.25;;;;;8.19;84.51;100343.88;5056685;28;45474;-75
2022/01/09 11:21:49;;;;;;;;;4.00;3.00;;;;;8.26;84.28;100346.59;5073889;27;45969;-76
2022/01/09 11:24:18;;;;;;;;;2.00;2.00;;;;;8.31;83.63;100342.28;5070379;28;47736;-73
2022/01/09 11:27:15;;;;;;;;;5.25;3.00;;;;;8.35;84.00;100348.44;5071423;28;45389;-74
2022/01/09 11:29:55;;;;;;;;;2.75;2.00;;;;;8.43;83.88;100354.72;5073077;27;45429;-74
2022/01/09 11:32:35;;;;;;;;;3.50;3.50;;;;;8.51;83.47;100355.69;5073349;28;45651;-73
2022/01/09 11:35:12;;;;;;;;;5.00;5.00;;;;;8.48;83.34;100345.16;5071805;28;45833;-72